Time;durP1;ratioP1;P1;durP2;ratioP2;P2;SDS_P1;SDS_P2;PMS_P1;PMS_P2;Temp;Humidity;BMP_temperature;BMP_pressure;BME280_temperature;BME280_humidity;BME280_pressure;Samples;Min_cycle;Max_cycle;Signal;HPM_P1;HPM_P2
2023/02/24 00:01:12;;;;;;;8.32;3.67;;;;;;;4.71;100.00;100854.44;4983465;28;20049;-76
2023/02/24 00:03:37;;;;;;;11.70;3.72;;;;;;;4.75;100.00;100848.47;4989511;28;20913;-75
2023/02/24 00:06:10;;;;;;;12.32;5.28;;;;;;;4.70;100.00;100842.28;5004871;28;20038;-75
2023/02/24 00:08:41;;;;;;;12.73;5.38;;;;;;;5.06;100.00;100955.22;4990525;28;20437;-74
2023/02/24 00:11:14;;;;;;;11.52;3.83;;;;;;;4.22;100.00;100846.84;5000939;28;20181;-74
2023/02/24 00:13:45;;;;;;;7.18;4.07;;;;;;;5.13;100.00;100961.50;5002773;28;20061;-76
2023/02/24 00:16:13;;;;;;;9.38;4.03;;;;;;;5.33;100.00;100975.09;4985276;28;20467;-75
2023/02/24 00:18:39;;;;;;;11.60;4.13;;;;;;;4.88;100.00;100906.94;4981460;28;20081;-75
2023/02/24 00:21:12;;;;;;;10.15;4.43;;;;;;;4.75;100.00;100955.06;4984924;28;20313;-73
2023/02/24 00:23:39;;;;;;;7.40;3.25;;;;;;;3.87;100.00;100843.06;4975335;28;20502;-74
2023/02/24 00:26:06;;;;;;;11.70;5.85;;;;;;;4.81;100.00;100937.06;4980715;28;20070;-75
2023/02/24 00:28:33;;;;;;;10.00;4.07;;;;;;;4.12;100.00;100885.44;4977539;28;20054;-75
2023/02/24 00:31:14;;;;;;;7.93;3.80;;;;;;;4.86;100.00;100932.91;4976995;28;20584;-73
2023/02/24 00:33:41;;;;;;;10.60;4.82;;;;;;;4.29;100.00;100793.38;4980169;28;20096;-75
2023/02/24 00:36:11;;;;;;;7.20;3.95;;;;;;;4.93;100.00;100910.56;4975564;28;20066;-76
2023/02/24 00:38:38;;;;;;;10.63;5.45;;;;;;;4.58;100.00;100824.56;4981686;28;20134;-74
2023/02/24 00:41:13;;;;;;;7.68;4.18;;;;;;;5.02;100.00;100936.88;4981735;28;20048;-76
2023/02/24 00:43:39;;;;;;;12.38;3.97;;;;;;;4.16;100.00;100792.09;4979164;28;20134;-75
2023/02/24 00:46:10;;;;;;;8.60;3.25;;;;;;;4.96;100.00;100913.25;4984689;28;20141;-73
2023/02/24 00:48:39;;;;;;;5.35;3.45;;;;;;;4.55;100.00;100796.78;4976843;28;20057;-75
2023/02/24 00:51:09;;;;;;;9.65;5.22;;;;;;;5.14;100.00;100919.03;4977550;28;20479;-76
2023/02/24 00:53:37;;;;;;;8.25;4.05;;;;;;;4.90;100.00;100859.38;4978667;28;20046;-76
2023/02/24 00:56:06;;;;;;;11.93;5.47;;;;;;;4.33;100.00;100778.75;4974716;28;20042;-77
2023/02/24 00:58:35;;;;;;;26.35;4.35;;;;;;;4.27;100.00;100761.28;4977820;28;20050;-74
2023/02/24 01:01:02;;;;;;;9.10;4.05;;;;;;;4.91;100.00;100891.44;4985667;28;20101;-74
2023/02/24 01:03:28;;;;;;;8.98;4.32;;;;;;;4.19;100.00;100753.25;4979904;28;20085;-74
2023/02/24 01:05:54;;;;;;;5.55;3.20;;;;;;;4.62;100.00;100899.22;4979840;28;20168;-75
2023/02/24 01:08:22;;;;;;;20.90;5.72;;;;;;;4.89;100.00;100887.91;4978904;28;20252;-74
2023/02/24 01:13:43;;;;;;;12.77;5.25;;;;;;;4.33;100.00;100883.56;4976525;28;20107;-74
2023/02/24 01:16:13;;;;;;;11.38;4.50;;;;;;;3.47;100.00;100721.50;4977403;28;20058;-76
2023/02/24 01:18:39;;;;;;;13.98;4.38;;;;;;;4.24;100.00;100784.56;4973030;28;20065;-75
2023/02/24 01:21:05;;;;;;;6.75;4.82;;;;;;;4.82;100.00;100869.53;4978998;28;20545;-75
2023/02/24 01:23:31;;;;;;;10.57;4.70;;;;;;;3.57;100.00;100654.38;4981766;28;20038;-73
2023/02/24 01:25:58;;;;;;;8.80;3.95;;;;;;;4.13;100.00;100856.94;4976728;28;20554;-74
2023/02/24 01:28:25;;;;;;;9.10;4.20;;;;;;;3.85;100.00;100712.34;4975145;28;20581;-75
2023/02/24 01:30:52;;;;;;;10.75;5.13;;;;;;;3.73;100.00;100711.97;4976090;28;20047;-75
2023/02/24 01:33:19;;;;;;;9.43;3.95;;;;;;;4.79;100.00;100850.34;4978914;28;20084;-76
2023/02/24 01:35:44;;;;;;;11.02;4.43;;;;;;;4.38;100.00;100837.84;4981726;28;20083;-76
2023/02/24 01:38:10;;;;;;;11.70;4.53;;;;;;;4.23;100.00;100852.91;4975080;28;20502;-75
2023/02/24 01:40:36;;;;;;;7.78;4.60;;;;;;;4.35;100.00;100798.75;4974544;28;20050;-75
2023/02/24 01:43:07;;;;;;;13.07;4.95;;;;;;;4.33;100.00;100817.72;4982211;28;20133;-76
2023/02/24 01:45:38;;;;;;;7.82;3.70;;;;;;;4.27;100.00;100789.84;4985140;28;20413;-74
2023/02/24 01:48:07;;;;;;;11.05;4.88;;;;;;;3.86;100.00;100801.47;4980550;28;20034;-73
2023/02/24 01:50:34;;;;;;;6.03;3.78;;;;;;;3.27;100.00;100672.41;5002288;28;20054;-74
2023/02/24 01:53:05;;;;;;;11.05;5.50;;;;;;;4.04;100.00;100794.31;4982246;28;20050;-75
2023/02/24 01:55:40;;;;;;;8.65;3.35;;;;;;;3.37;100.00;100665.81;4984388;28;20050;-75
2023/02/24 01:58:12;;;;;;;9.38;4.65;;;;;;;3.47;100.00;100659.25;4976670;28;20514;-75
2023/02/24 02:00:43;;;;;;;10.68;5.00;;;;;;;3.75;100.00;100689.56;4980789;28;20046;-75
2023/02/24 02:03:39;;;;;;;13.82;4.35;;;;;;;4.49;100.00;100778.41;4976046;28;20030;-75
2023/02/24 02:06:10;;;;;;;9.45;3.83;;;;;;;3.68;100.00;100661.66;4978899;28;20479;-74
2023/02/24 02:08:39;;;;;;;8.07;4.13;;;;;;;3.63;100.00;100634.63;4981342;28;20038;-75
2023/02/24 02:11:11;;;;;;;6.57;3.47;;;;;;;3.65;100.00;100653.75;4975576;28;20050;-76
2023/02/24 02:13:41;;;;;;;12.98;5.78;;;;;;;4.24;100.00;100753.41;4977835;28;20050;-75
2023/02/24 02:16:33;;;;;;;18.13;5.13;;;;;;;3.57;100.00;100638.81;4981447;28;20113;-75
2023/02/24 02:19:23;;;;;;;14.35;3.85;;;;;;;4.28;100.00;100775.16;4980007;28;20053;-74
2023/02/24 02:22:07;;;;;;;10.65;5.25;;;;;;;4.54;100.00;100760.34;4973623;28;20062;-75
2023/02/24 02:24:36;;;;;;;12.57;4.05;;;;;;;3.75;100.00;100619.47;4975039;28;20046;-73
2023/02/24 02:27:10;;;;;;;19.17;5.50;;;;;;;4.44;100.00;100778.25;4976297;28;20064;-75
2023/02/24 02:30:01;;;;;;;11.07;5.40;;;;;;;4.53;100.00;100779.38;4983208;28;20125;-73
2023/02/24 02:32:50;;;;;;;16.75;4.70;;;;;;;4.43;100.00;100773.91;4998569;28;20053;-74
2023/02/24 02:35:45;;;;;;;12.15;4.47;;;;;;;3.78;100.00;100752.78;4998314;28;20398;-75
2023/02/24 02:38:26;;;;;;;9.52;4.32;;;;;;;4.17;100.00;100760.13;5000331;28;20050;-74
2023/02/24 02:41:05;;;;;;;13.70;4.78;;;;;;;3.79;100.00;100731.22;4981025;28;20053;-73
2023/02/24 02:43:47;;;;;;;7.72;3.60;;;;;;;3.48;100.00;100666.16;4986781;28;20054;-74
2023/02/24 02:46:38;;;;;;;17.23;5.65;;;;;;;2.93;100.00;100622.03;4982046;28;20058;-75
2023/02/24 02:49:21;;;;;;;8.90;5.57;;;;;;;3.84;100.00;100739.16;4977767;28;20152;-75
2023/02/24 02:51:55;;;;;;;9.77;4.28;;;;;;;3.30;100.00;100711.44;4977071;28;20061;-75
2023/02/24 02:54:28;;;;;;;9.27;4.93;;;;;;;3.70;100.00;100727.41;4978625;28;20050;-74
2023/02/24 02:57:04;;;;;;;9.75;5.00;;;;;;;3.08;100.00;100568.94;4976498;28;20038;-74
2023/02/24 02:59:33;;;;;;;14.10;5.78;;;;;;;4.12;100.00;100717.56;4989107;28;20045;-74
2023/02/24 03:02:10;;;;;;;9.93;4.35;;;;;;;4.07;100.00;100700.03;4984046;28;20486;-75
2023/02/24 03:04:41;;;;;;;14.00;4.55;;;;;;;2.87;100.00;100551.81;4980392;28;20054;-74
2023/02/24 03:07:09;;;;;;;12.73;4.18;;;;;;;3.31;100.00;100601.66;4983170;28;20456;-73
2023/02/24 03:09:43;;;;;;;17.42;4.68;;;;;;;4.23;100.00;100716.13;4992448;28;20053;-73
2023/02/24 03:12:13;;;;;;;11.73;4.97;;;;;;;4.32;100.00;100712.94;4981491;28;20041;-75
2023/02/24 03:14:44;;;;;;;26.52;4.57;;;;;;;3.59;100.00;100585.25;4984718;28;20402;-74
2023/02/24 03:17:21;;;;;;;14.65;4.90;;;;;;;4.13;100.00;100685.53;4982222;28;20730;-75
2023/02/24 03:19:55;;;;;;;7.38;4.93;;;;;;;4.13;100.00;100689.84;4984450;28;20107;-75
2023/02/24 03:22:26;;;;;;;9.18;4.32;;;;;;;4.35;100.00;100719.94;4982012;28;20137;-74
2023/02/24 03:24:52;;;;;;;9.88;4.43;;;;;;;4.44;100.00;100717.63;4978546;28;20464;-73
2023/02/24 03:27:40;;;;;;;12.68;5.30;;;;;;;3.99;100.00;100711.06;4982488;28;20055;-74
2023/02/24 03:30:14;;;;;;;11.20;4.28;;;;;;;3.85;100.00;100701.97;4979012;28;20050;-75
2023/02/24 03:32:54;;;;;;;8.73;4.60;;;;;;;3.89;100.00;100708.16;4984550;28;20038;-75
2023/02/24 03:35:29;;;;;;;11.98;4.70;;;;;;;3.11;100.00;100589.75;4977997;28;20084;-74
2023/02/24 03:37:58;;;;;;;11.52;6.20;;;;;;;3.58;100.00;100663.03;4981700;28;20042;-73
2023/02/24 03:40:28;;;;;;;9.10;4.35;;;;;;;2.67;100.00;100533.03;4982193;28;20042;-76
2023/02/24 03:43:24;;;;;;;7.13;4.03;;;;;;;2.63;100.00;100514.75;4980475;28;20093;-74
2023/02/24 03:45:49;;;;;;;8.85;4.28;;;;;;;3.36;100.00;100654.56;4980394;28;20050;-74
2023/02/24 03:48:16;;;;;;;18.63;4.18;;;;;;;3.62;100.00;100644.16;4982230;28;20138;-74
2023/02/24 03:50:42;;;;;;;9.98;4.53;;;;;;;3.31;100.00;100650.94;4981857;28;20046;-75
2023/02/24 03:53:49;;;;;;;14.27;6.03;;;;;;;3.35;100.00;100649.34;4980760;28;20047;-74
2023/02/24 03:56:28;;;;;;;10.57;5.43;;;;;;;2.78;100.00;100502.28;4957047;28;20062;-74
2023/02/24 03:59:41;;;;;;;12.40;6.47;;;;;;;3.45;100.00;100643.59;4978052;28;20539;-73
2023/02/24 04:02:29;;;;;;;14.32;4.38;;;;;;;3.29;100.00;100630.97;4940654;28;20131;-73
2023/02/24 04:05:13;;;;;;;12.00;4.85;;;;;;;3.32;100.00;100628.47;4976602;28;20100;-73
2023/02/24 04:07:52;;;;;;;7.43;3.97;;;;;;;3.31;100.00;100617.22;4983295;28;20522;-74
2023/02/24 04:10:25;;;;;;;27.50;6.30;;;;;;;3.21;100.00;100619.44;4976462;28;20165;-74
2023/02/24 04:13:19;;;;;;;7.43;4.18;;;;;;;3.17;100.00;100601.22;4975578;28;20092;-74
2023/02/24 04:15:57;;;;;;;9.00;4.75;;;;;;;2.45;100.00;100445.94;4976489;28;20062;-74
2023/02/24 04:18:30;;;;;;;13.18;4.90;;;;;;;3.31;100.00;100587.81;4977712;28;20206;-74
2023/02/24 04:20:58;;;;;;;10.25;4.65;;;;;;;2.28;100.00;100431.56;4975150;28;20771;-75
2023/02/24 04:23:28;;;;;;;12.75;5.63;;;;;;;2.65;100.00;100436.25;4973019;28;20030;-74
2023/02/24 04:25:55;;;;;;;12.70;5.60;;;;;;;2.79;100.00;100492.84;4982221;28;20057;-74
2023/02/24 04:28:22;;;;;;;14.55;5.95;;;;;;;2.37;100.00;100429.28;4975769;28;20125;-74
2023/02/24 04:30:52;;;;;;;8.63;4.10;;;;;;;2.79;100.00;100487.66;4980744;28;20050;-74
2023/02/24 04:33:19;;;;;;;13.55;5.93;;;;;;;2.66;100.00;100430.22;4973782;28;20172;-74
2023/02/24 04:35:47;;;;;;;13.10;5.60;;;;;;;2.42;100.00;100417.38;4979206;28;20049;-75
2023/02/24 04:38:13;;;;;;;14.18;4.00;;;;;;;2.63;100.00;100429.28;4977712;28;20042;-74
2023/02/24 04:40:39;;;;;;;13.77;4.47;;;;;;;2.91;100.00;100425.84;4977198;28;20059;-73
2023/02/24 04:43:06;;;;;;;19.33;4.97;;;;;;;2.67;100.00;100433.69;4979712;28;20085;-73
2023/02/24 04:45:33;;;;;;;11.18;4.50;;;;;;;3.03;100.00;100529.03;4980234;28;20101;-73
2023/02/24 04:48:02;;;;;;;23.42;5.32;;;;;;;3.05;100.00;100535.13;4980401;28;20380;-73
2023/02/24 04:50:34;;;;;;;17.10;7.30;;;;;;;2.35;100.00;100399.00;4985155;28;20100;-73
2023/02/24 04:53:06;;;;;;;13.27;4.72;;;;;;;2.96;100.00;100522.75;4981456;28;20170;-74
2023/02/24 04:55:41;;;;;;;30.90;6.45;;;;;;;2.87;100.00;100520.72;4983504;28;20054;-75
2023/02/24 04:58:11;;;;;;;11.07;5.05;;;;;;;2.53;100.00;100400.47;4980412;28;20474;-76
2023/02/24 05:00:40;;;;;;;9.13;4.20;;;;;;;3.30;100.00;100529.91;4983464;28;20178;-76
2023/02/24 05:03:07;;;;;;;9.23;4.25;;;;;;;3.12;100.00;100509.44;4983556;28;20057;-74
2023/02/24 05:05:33;;;;;;;12.52;5.00;;;;;;;3.10;100.00;100512.81;4983870;28;20034;-74
2023/02/24 05:08:07;;;;;;;13.73;4.60;;;;;;;2.24;100.00;100393.47;4981311;28;20050;-73
2023/02/24 05:10:40;;;;;;;13.25;5.50;;;;;;;2.66;100.00;100448.38;4977727;28;20058;-74
2023/02/24 05:13:08;;;;;;;9.90;5.10;;;;;;;2.66;100.00;100461.31;4980002;28;20038;-74
2023/02/24 05:15:38;;;;;;;10.65;4.20;;;;;;;3.20;100.00;100506.22;4984074;28;20575;-74
2023/02/24 05:18:09;;;;;;;12.90;5.30;;;;;;;2.42;100.00;100383.72;4981609;28;20065;-73
2023/02/24 05:23:37;;;;;;;9.63;5.20;;;;;;;2.78;100.00;100429.75;4981837;28;20457;-74
2023/02/24 05:26:08;;;;;;;14.00;5.28;;;;;;;2.39;100.00;100377.53;4980383;28;20156;-73
2023/02/24 05:28:39;;;;;;;23.88;6.40;;;;;;;3.06;100.00;100519.63;4975941;28;20384;-74
2023/02/24 05:31:13;;;;;;;21.25;6.53;;;;;;;2.78;100.00;100454.78;4981062;28;20049;-74
2023/02/24 05:33:41;;;;;;;14.20;7.18;;;;;;;2.33;100.00;100371.34;4982905;28;20050;-74
2023/02/24 05:36:11;;;;;;;13.45;5.97;;;;;;;2.27;100.00;100363.41;4977304;28;20034;-74
2023/02/24 05:38:38;;;;;;;12.10;5.75;;;;;;;2.28;100.00;100375.50;4983793;28;20045;-75
2023/02/24 05:41:13;;;;;;;13.82;7.00;;;;;;;2.92;100.00;100479.41;4981398;28;20495;-74
2023/02/24 05:43:40;;;;;;;9.82;6.43;;;;;;;3.01;100.00;100484.91;4982214;28;20054;-75
2023/02/24 05:46:06;;;;;;;10.05;6.22;;;;;;;3.27;100.00;100497.78;4986833;28;20502;-74
2023/02/24 05:48:33;;;;;;;32.45;8.05;;;;;;;2.81;100.00;100437.63;4984084;28;20046;-74
2023/02/24 05:51:01;;;;;;;16.50;5.70;;;;;;;2.53;100.00;100350.41;4981380;28;20385;-74
2023/02/24 05:53:27;;;;;;;16.17;6.28;;;;;;;2.88;100.00;100441.28;4978745;28;20121;-74
2023/02/24 05:55:52;;;;;;;11.73;5.65;;;;;;;3.01;100.00;100476.25;4977027;28;20057;-74
2023/02/24 05:58:17;;;;;;;37.58;8.15;;;;;;;2.50;100.00;100379.66;4978115;28;20522;-74
2023/02/24 06:00:45;;;;;;;35.88;6.38;;;;;;;2.48;100.00;100359.72;4983514;28;20045;-74
2023/02/24 06:03:16;;;;;;;14.50;5.85;;;;;;;3.05;100.00;100454.78;4983910;28;20050;-74
2023/02/24 06:05:52;;;;;;;11.32;6.18;;;;;;;2.92;100.00;100437.94;4989320;28;20144;-75
2023/02/24 06:08:17;;;;;;;12.02;5.20;;;;;;;3.03;100.00;100478.06;5004229;28;20495;-74
2023/02/24 06:10:45;;;;;;;18.30;5.47;;;;;;;3.19;100.00;100499.28;5000317;28;20053;-74
2023/02/24 06:13:11;;;;;;;18.25;8.93;;;;;;;2.37;100.00;100342.97;4989076;28;20046;-73
2023/02/24 06:15:37;;;;;;;18.73;9.40;;;;;;;3.22;100.00;100476.03;4983546;28;20459;-74
2023/02/24 06:18:03;;;;;;;15.60;8.05;;;;;;;3.20;100.00;100470.78;4981479;28;20494;-74
2023/02/24 06:20:31;;;;;;;19.08;9.63;;;;;;;2.72;100.00;100380.34;4983509;28;20050;-74
2023/02/24 06:22:57;;;;;;;17.08;7.72;;;;;;;3.21;100.00;100445.72;4983759;28;20058;-73
2023/02/24 06:25:28;;;;;;;20.52;12.30;;;;;;;2.48;100.00;100339.91;4996380;28;20928;-73
2023/02/24 06:27:55;;;;;;;23.17;10.13;;;;;;;2.60;100.00;100349.75;5000121;28;20050;-74
2023/02/24 06:30:23;;;;;;;29.98;8.82;;;;;;;2.67;100.00;100353.41;5001421;28;20068;-75
2023/02/24 06:32:50;;;;;;;23.50;9.50;;;;;;;3.33;100.00;100491.09;5003816;28;20104;-74
2023/02/24 06:35:16;;;;;;;21.75;10.60;;;;;;;3.35;100.00;100484.25;5000966;28;20056;-74
2023/02/24 06:37:42;;;;;;;24.10;9.15;;;;;;;2.58;100.00;100350.56;4994480;28;20053;-74
2023/02/24 06:40:14;;;;;;;34.90;11.93;;;;;;;3.30;100.00;100453.78;5000453;28;20054;-74
2023/02/24 06:42:47;;;;;;;18.63;7.82;;;;;;;3.61;100.00;100468.56;4998291;28;20039;-74
2023/02/24 06:45:14;;;;;;;38.53;8.38;;;;;;;2.84;100.00;100353.94;5000343;28;20084;-74
2023/02/24 06:47:41;;;;;;;18.73;8.02;;;;;;;2.98;100.00;100370.78;4999530;28;20027;-75
2023/02/24 06:50:09;;;;;;;17.23;6.50;;;;;;;2.93;100.00;100334.34;5002437;28;20560;-75
2023/02/24 06:52:35;;;;;;;18.58;7.05;;;;;;;3.77;100.00;100469.88;4987215;28;20050;-73
2023/02/24 06:55:03;;;;;;;14.98;6.28;;;;;;;3.66;100.00;100373.56;4983064;28;20254;-73
2023/02/24 06:57:33;;;;;;;17.83;7.72;;;;;;;3.70;100.00;100403.06;4977572;28;20085;-73
2023/02/24 07:00:15;;;;;;;15.55;7.82;;;;;;;3.55;100.00;100468.38;4982975;28;20038;-75
2023/02/24 07:02:40;;;;;;;16.85;9.88;;;;;;;3.11;100.00;100343.47;4980414;28;20049;-73
2023/02/24 07:05:06;;;;;;;19.23;10.27;;;;;;;4.42;100.00;100480.28;4979303;28;20509;-75
2023/02/24 07:07:32;;;;;;;16.67;7.15;;;;;;;3.90;100.00;100354.28;4983986;28;20082;-75
2023/02/24 07:09:57;;;;;;;38.78;11.20;;;;;;;3.67;100.00;100370.13;4986462;28;20046;-73
2023/02/24 07:12:23;;;;;;;15.52;8.20;;;;;;;3.64;100.00;100367.44;4983590;28;20043;-73
2023/02/24 07:14:49;;;;;;;16.83;8.20;;;;;;;3.94;100.00;100369.13;4986814;28;20041;-74
2023/02/24 07:17:17;;;;;;;20.73;8.82;;;;;;;4.09;100.00;100364.31;4987934;28;20045;-74
2023/02/24 07:19:43;;;;;;;17.05;7.70;;;;;;;4.36;100.00;100470.63;4987622;28;20149;-74
2023/02/24 07:22:09;;;;;;;19.38;9.43;;;;;;;4.86;100.00;100491.78;4984197;28;20585;-74
2023/02/24 07:24:36;;;;;;;14.88;7.90;;;;;;;3.80;100.00;100413.75;4982663;28;20061;-76
2023/02/24 07:27:20;;;;;;;17.63;8.65;;;;;;;4.86;100.00;100540.31;4984361;28;20030;-75
2023/02/24 07:29:46;;;;;;;22.15;9.23;;;;;;;5.13;100.00;100531.41;4977790;28;20038;-75
2023/02/24 07:32:12;;;;;;;15.05;9.93;;;;;;;3.96;100.00;100403.78;4985127;28;20141;-75
2023/02/24 07:34:41;;;;;;;25.38;11.85;;;;;;;3.77;100.00;100443.94;4979670;28;20144;-75
2023/02/24 07:37:07;;;;;;;14.68;9.30;;;;;;;4.39;100.00;100517.44;4985766;28;20038;-75
2023/02/24 07:39:35;;;;;;;15.35;9.93;;;;;;;4.38;100.00;100539.09;4984718;28;20129;-75
2023/02/24 07:42:01;;;;;;;19.75;10.50;;;;;;;3.99;100.00;100448.00;4986126;28;20030;-75
2023/02/24 07:44:28;;;;;;;19.23;10.18;;;;;;;3.48;100.00;100399.00;4986257;28;20093;-75
2023/02/24 07:46:55;;;;;;;18.02;9.57;;;;;;;4.20;100.00;100516.06;4985533;28;20604;-75
2023/02/24 07:49:24;;;;;;;20.60;10.02;;;;;;;4.09;100.00;100413.63;4986250;28;20046;-75
2023/02/24 07:51:51;;;;;;;26.13;12.95;;;;;;;4.61;100.00;100526.72;4984431;28;20474;-75
2023/02/24 07:54:22;;;;;;;19.00;11.57;;;;;;;4.62;100.00;100504.19;4983997;28;20047;-75
2023/02/24 07:56:55;;;;;;;20.55;12.38;;;;;;;4.53;100.00;100509.16;4980793;28;20038;-75
2023/02/24 07:59:28;;;;;;;20.60;13.65;;;;;;;4.28;100.00;100492.03;4984826;28;20133;-75
2023/02/24 08:01:55;;;;;;;20.55;9.98;;;;;;;4.31;100.00;100460.94;4983327;28;20674;-74
2023/02/24 08:04:24;;;;;;;32.38;9.98;;;;;;;4.49;100.00;100466.59;4975939;28;20057;-75
2023/02/24 08:06:54;;;;;;;39.08;10.23;;;;;;;4.26;100.00;100432.28;4981118;28;20561;-77
2023/02/24 08:09:45;;;;;;;26.40;12.77;;;;;;;4.60;100.00;100482.47;4987449;28;20053;-74
2023/02/24 08:12:08;;;;;;;17.45;10.73;;;;;;;4.34;100.00;100442.84;4983380;28;20076;-75
2023/02/24 08:14:33;;;;;;;22.58;10.38;;;;;;;4.19;100.00;100438.13;4985475;28;20042;-73
2023/02/24 08:17:04;;;;;;;24.25;13.82;;;;;;;4.02;100.00;100432.50;4983687;28;20047;-75
2023/02/24 08:19:32;;;;;;;25.73;13.20;;;;;;;4.26;100.00;100429.69;4986288;28;20050;-74
2023/02/24 08:22:36;;;;;;;23.17;9.80;;;;;;;3.86;100.00;100310.94;4980233;28;20077;-74
2023/02/24 08:24:59;;;;;;;26.75;11.88;;;;;;;4.29;100.00;100335.38;4978932;28;20053;-75
2023/02/24 08:27:30;;;;;;;20.87;12.10;;;;;;;4.70;100.00;100436.81;4981928;28;20112;-75
2023/02/24 08:29:57;;;;;;;23.75;10.10;;;;;;;4.45;100.00;100446.59;4983309;28;20038;-76
2023/02/24 08:32:45;;;;;;;20.00;13.55;;;;;;;4.32;100.00;100435.00;4979643;28;20037;-74
2023/02/24 08:35:15;;;;;;;19.75;11.65;;;;;;;4.62;100.00;100429.69;4982368;28;20050;-73
2023/02/24 08:37:49;;;;;;;19.70;11.25;;;;;;;4.72;100.00;100436.00;4981503;28;20128;-74
2023/02/24 08:40:38;;;;;;;20.25;10.82;;;;;;;4.01;100.00;100301.81;4986640;28;20057;-74
2023/02/24 08:43:14;;;;;;;38.42;10.88;;;;;;;4.91;100.00;100431.22;4979888;28;20046;-72
2023/02/24 08:45:51;;;;;;;15.50;9.70;;;;;;;5.08;100.00;100416.91;4986779;28;20065;-73
2023/02/24 08:48:31;;;;;;;15.75;10.75;;;;;;;4.44;100.00;100357.38;4999211;28;20420;-73
2023/02/24 08:51:01;;;;;;;29.73;11.35;;;;;;;5.15;100.00;100434.41;5003756;28;20092;-73
2023/02/24 08:53:33;;;;;;;24.42;12.38;;;;;;;5.18;100.00;100410.19;5005010;28;20502;-71
2023/02/24 08:56:10;;;;;;;27.88;12.20;;;;;;;4.57;100.00;100304.00;4984376;28;20057;-74
2023/02/24 08:58:45;;;;;;;18.35;10.10;;;;;;;3.94;100.00;100299.03;4984124;28;20506;-74
2023/02/24 09:01:24;;;;;;;24.98;10.70;;;;;;;4.17;100.00;100271.91;4978760;28;20117;-74
2023/02/24 09:03:56;;;;;;;22.13;11.07;;;;;;;5.26;100.00;100424.22;4984379;28;20088;-73
2023/02/24 09:06:38;;;;;;;25.83;10.00;;;;;;;3.67;100.00;100262.88;4981031;28;20054;-72
2023/02/24 09:09:16;;;;;;;19.02;10.77;;;;;;;4.42;100.00;100394.56;4984209;28;20046;-73
2023/02/24 09:11:46;;;;;;;41.42;14.23;;;;;;;4.95;100.00;100413.13;4984767;28;20049;-73
2023/02/24 09:14:15;;;;;;;22.30;11.63;;;;;;;4.45;100.00;100285.53;4978640;28;20061;-73
2023/02/24 09:17:00;;;;;;;20.95;13.15;;;;;;;4.21;100.00;100325.69;4988908;28;20520;-73
2023/02/24 09:19:39;;;;;;;23.60;13.25;;;;;;;4.25;100.00;100285.06;4981548;28;20149;-72
2023/02/24 09:22:13;;;;;;;25.67;14.90;;;;;;;4.95;100.00;100374.13;4973120;28;20042;-74
2023/02/24 09:24:40;;;;;;;25.75;12.70;;;;;;;5.17;100.00;100366.78;4983214;28;20061;-74
2023/02/24 09:27:06;;;;;;;20.90;13.00;;;;;;;5.32;100.00;100340.25;4984698;28;20045;-74
2023/02/24 09:29:47;;;;;;;20.95;13.90;;;;;;;5.77;100.00;100376.69;4981427;28;20046;-75
2023/02/24 09:32:14;;;;;;;25.88;12.02;;;;;;;5.84;100.00;100416.72;4980544;28;20084;-73
2023/02/24 09:34:44;;;;;;;17.08;12.35;;;;;;;4.50;100.00;100182.59;4986900;28;20046;-73
2023/02/24 09:37:23;;;;;;;20.95;12.85;;;;;;;4.44;100.00;100270.78;4986998;28;20064;-75
2023/02/24 09:42:45;;;;;;;18.10;12.23;;;;;;;4.94;100.00;100281.41;4983550;28;20054;-73
2023/02/24 09:45:31;;;;;;;24.70;15.35;;;;;;;5.23;100.00;100288.91;4976818;28;20112;-73
2023/02/24 09:48:09;;;;;;;41.70;17.95;;;;;;;5.45;100.00;100304.06;4979443;28;20807;-74
2023/02/24 09:53:28;;;;;;;37.83;16.67;;;;;;;6.23;100.00;100371.47;4983582;28;20468;-75
2023/02/24 09:56:06;;;;;;;47.08;16.48;;;;;;;5.88;100.00;100273.59;4998638;28;20050;-73
2023/02/24 09:58:46;;;;;;;22.05;14.10;;;;;;;6.05;100.00;100296.47;4987421;28;20058;-75
2023/02/24 10:01:43;;;;;;;28.50;15.25;;;;;;;5.89;100.00;100298.78;4985746;28;20048;-73
2023/02/24 10:04:17;;;;;;;22.95;13.50;;;;;;;6.75;100.00;100404.44;4993513;28;20054;-74
2023/02/24 10:07:04;;;;;;;31.80;15.40;;;;;;;6.60;100.00;100398.09;4992231;28;20054;-74
2023/02/24 10:09:34;;;;;;;31.80;19.73;;;;;;;6.38;100.00;100376.91;4982747;28;20133;-75
2023/02/24 10:12:22;;;;;;;29.20;16.95;;;;;;;6.12;100.00;100373.88;4984397;28;20038;-74
2023/02/24 10:15:17;;;;;;;21.33;14.75;;;;;;;5.72;100.00;100352.28;4981518;28;20038;-73
2023/02/24 10:17:39;;;;;;;35.00;18.27;;;;;;;5.77;100.00;100258.66;4982851;28;20058;-74
2023/02/24 10:20:29;;;;;;;30.08;17.25;;;;;;;6.70;100.00;100345.25;4983848;28;20054;-74
2023/02/24 10:23:33;;;;;;;20.63;12.75;;;;;;;6.34;100.00;100351.63;4978588;28;20046;-73
2023/02/24 10:26:06;;;;;;;24.45;15.48;;;;;;;6.47;100.00;100329.28;4966370;28;20199;-73
2023/02/24 10:28:50;;;;;;;27.95;15.77;;;;;;;5.59;100.00;100218.41;4979991;28;20051;-73
2023/02/24 10:31:29;;;;;;;26.55;15.65;;;;;;;5.72;100.00;100318.44;4978200;28;20164;-73
2023/02/24 10:34:07;;;;;;;26.10;17.10;;;;;;;5.86;100.00;100214.53;4980390;28;20053;-74
2023/02/24 10:36:38;;;;;;;34.80;16.85;;;;;;;5.39;100.00;100202.47;4975667;28;20120;-73
2023/02/24 10:39:24;;;;;;;33.25;22.30;;;;;;;6.20;100.00;100234.19;4982371;28;20030;-74
2023/02/24 10:42:46;;;;;;;24.88;16.00;;;;;;;6.59;100.00;100333.78;4978090;28;20486;-74
2023/02/24 10:45:30;;;;;;;27.60;15.93;;;;;;;6.29;100.00;100316.81;4977913;28;20055;-74
2023/02/24 10:47:58;;;;;;;30.13;16.13;;;;;;;5.67;100.00;100196.00;4981306;28;20033;-74
2023/02/24 10:50:43;;;;;;;29.85;19.75;;;;;;;6.27;100.00;100211.69;4980860;28;20085;-75
2023/02/24 10:53:33;;;;;;;40.85;23.33;;;;;;;6.27;100.00;100194.31;4981475;28;20117;-74
2023/02/24 10:56:40;;;;;;;32.35;15.30;;;;;;;6.28;100.00;100196.09;4979943;28;20070;-75
2023/02/24 11:01:58;;;;;;;28.20;14.70;;;;;;;6.87;100.00;100223.78;4983651;28;20050;-79
2023/02/24 11:07:32;;;;;;;19.40;12.93;;;;;;;6.31;100.00;100117.97;4982275;28;20054;-75
2023/02/24 11:10:11;;;;;;;28.25;13.55;;;;;;;7.03;100.00;100232.66;4988711;28;20077;-76
2023/02/24 11:18:26;;;;;;;23.50;14.05;;;;;;;7.13;100.00;100229.28;4985256;28;20085;-74
2023/02/24 11:20:58;;;;;;;24.42;14.07;;;;;;;7.66;100.00;100323.84;4986016;28;20133;-76
2023/02/24 11:23:28;;;;;;;28.50;14.18;;;;;;;7.15;100.00;100237.16;4982862;28;20096;-72
2023/02/24 11:26:00;;;;;;;29.23;12.55;;;;;;;7.72;100.00;100358.69;4981987;28;20085;-77
2023/02/24 11:28:47;;;;;;;22.15;13.07;;;;;;;7.68;100.00;100341.28;4986156;28;20112;-75
2023/02/24 11:31:37;;;;;;;21.05;12.27;;;;;;;7.85;100.00;100356.25;4982183;28;20077;-75
2023/02/24 11:34:09;;;;;;;23.08;12.70;;;;;;;7.12;100.00;100231.91;4984526;28;20049;-75
2023/02/24 11:36:56;;;;;;;29.20;12.23;;;;;;;7.06;100.00;100205.75;4984242;28;20076;-74
2023/02/24 11:39:41;;;;;;;23.23;11.15;;;;;;;7.88;100.00;100343.19;4983634;28;20054;-74
2023/02/24 11:42:15;;;;;;;18.48;13.73;;;;;;;6.95;100.00;100169.09;4981795;28;20030;-76
2023/02/24 11:44:52;;;;;;;28.75;14.63;;;;;;;7.98;100.00;100351.16;4982157;28;20079;-75
2023/02/24 11:47:26;;;;;;;22.35;13.25;;;;;;;7.80;100.00;100336.16;4987055;28;20054;-75
2023/02/24 11:50:27;;;;;;;30.02;13.80;;;;;;;7.87;100.00;100342.34;4982375;28;20482;-75
2023/02/24 11:52:55;;;;;;;29.65;14.88;;;;;;;7.93;100.00;100333.66;4983593;28;20053;-75
2023/02/24 11:55:34;;;;;;;23.15;12.57;;;;;;;7.75;100.00;100318.69;4984226;28;20066;-74
2023/02/24 11:58:11;;;;;;;29.10;13.55;;;;;;;7.91;100.00;100311.88;4986606;28;20060;-75
2023/02/24 12:00:40;;;;;;;22.60;13.82;;;;;;;8.01;100.00;100304.16;4985819;28;20919;-76
2023/02/24 12:03:17;;;;;;;22.92;13.57;;;;;;;8.29;100.00;100324.38;4983335;28;20692;-74
2023/02/24 12:05:55;;;;;;;27.30;13.63;;;;;;;7.53;100.00;100228.81;4985000;28;20439;-75
2023/02/24 12:08:23;;;;;;;29.27;15.25;;;;;;;8.43;100.00;100343.72;4984592;28;20810;-77